Main page
METAR-TAF:

METAR-TAF

Airports :

Plymouth Municipal Airport

Plymouth, Massachusetts, United States

latitude: 41-54-31N, longitude: 070-43-41W, elevation: 148 ft

Current weather observation

The report was made 25 minutes ago, at 21:36 UTC
Wind 13 mph from the North with gusts up to 21 mph
Temperature 39°F
Humidity 75%
Pressure 29.73 in. Hg
Visibility: 10 miles
Scattered clouds at a height of 2200 ft
Overcast at a height of 3400 ft

METAR: KPYM 012136Z AUTO 01011G18KT 10SM SCT022 OVC034 04/00 A2973 RMK AO2 T00440000 $

Time: 18:01 (22:01 UTC)


TAF: missing

Weather observations and forecasts of more than 4000 airports (METAR and TAF reports).

The available stations are represented by yellow and red dots on the map.

Hover mouse over dot to see the name of the station.

Then click to see weather observations and forecasts.

To change the map : click on the green buttons with a black cross to zoom in, on the green button with a dash to zoom out, or on the green arrows for adjacent maps.


METAR-TAF: